Independence, California
Current Conditions -  °F | °C
As of 2:56 AM on Wednesday 26 Nov 2014 (Local Time) from KBIH Reporting Station
Clear Clear  
Wind Chill: 25°   Ceiling: Unl
Heat Index: 30°   Visibility: 10mi
Dew Point: 11°   Wind: 5mph
Humidity: 45%   Direction: 350°N
Pressure: 30.45"   Gusts: NA
Location:  36.8°N, 118.2°W
Report Text: KBIH 261056Z AUTO 35004KT 10SM CLR M01/M12 A3045 RMK AO2 SLP295 T10111117
Loading
Personal Weather Stations






























Interactive Weather Map New forecast layout! Learn more

10-Day Weather Forecast

Advertisements
Track Severe Weather on mobile